createdAt,value
2018-11-20T00:00:13.407Z,3.30
2018-11-20T00:03:39.258Z,3.30
2018-11-20T00:07:00.443Z,3.20
2018-11-20T00:10:38.230Z,3.20
2018-11-20T00:14:19.128Z,3.20
2018-11-20T00:17:40.656Z,3.10
2018-11-20T00:20:56.347Z,3.00
2018-11-20T00:24:19.066Z,2.80
2018-11-20T00:27:44.555Z,2.80
2018-11-20T00:31:07.243Z,2.80
2018-11-20T00:34:28.273Z,2.80
2018-11-20T00:37:49.736Z,2.80
2018-11-20T00:41:03.946Z,2.70
2018-11-20T00:44:26.746Z,2.60
2018-11-20T00:47:47.800Z,2.60
2018-11-20T00:51:13.215Z,2.60
2018-11-20T00:54:34.299Z,2.60
2018-11-20T00:58:02.920Z,2.50
2018-11-20T01:01:23.128Z,2.60
2018-11-20T01:04:44.368Z,2.60
2018-11-20T01:08:07.411Z,2.60
2018-11-20T01:11:28.590Z,2.70
2018-11-20T01:15:01.415Z,2.70
2018-11-20T01:18:23.221Z,2.70
2018-11-20T01:21:44.709Z,2.80
2018-11-20T01:25:10.220Z,2.80
2018-11-20T01:28:51.445Z,2.70
2018-11-20T01:32:11.763Z,2.80
2018-11-20T01:35:43.865Z,2.70
2018-11-20T01:39:21.348Z,2.70
2018-11-20T01:42:49.910Z,2.70
2018-11-20T01:46:21.447Z,2.80
2018-11-20T01:49:41.581Z,2.90
2018-11-20T01:53:11.059Z,2.90
2018-11-20T01:56:32.331Z,2.90
2018-11-20T01:59:49.122Z,2.90
2018-11-20T02:03:10.615Z,2.90
2018-11-20T02:06:32.042Z,2.90
2018-11-20T02:09:57.747Z,2.80
2018-11-20T02:14:10.228Z,2.80
2018-11-20T02:17:54.796Z,2.80
2018-11-20T02:21:29.411Z,2.80
2018-11-20T02:24:44.075Z,2.80
2018-11-20T02:28:15.808Z,2.80
2018-11-20T02:31:44.679Z,2.80
2018-11-20T02:34:55.604Z,2.90
2018-11-20T02:38:15.077Z,2.80
2018-11-20T02:41:56.327Z,2.90
2018-11-20T02:45:17.745Z,2.80
2018-11-20T02:48:47.715Z,2.70
2018-11-20T02:52:10.460Z,2.70
2018-11-20T02:55:31.732Z,2.70
2018-11-20T02:59:09.655Z,2.60
2018-11-20T03:02:44.236Z,2.70
2018-11-20T03:06:08.113Z,2.60
2018-11-20T03:09:39.649Z,2.60
2018-11-20T03:13:02.297Z,2.60
2018-11-20T03:16:19.875Z,2.60
2018-11-20T03:19:42.534Z,2.60
2018-11-20T03:23:03.367Z,2.50
2018-11-20T03:26:46.957Z,2.50
2018-11-20T03:31:22.051Z,2.50
2018-11-20T03:34:44.232Z,2.50
2018-11-20T03:38:05.568Z,2.50
2018-11-20T03:41:21.708Z,2.50
2018-11-20T03:45:02.789Z,2.50
2018-11-20T03:48:34.421Z,2.50
2018-11-20T03:52:03.152Z,2.50
2018-11-20T03:55:21.323Z,2.60
2018-11-20T03:58:52.136Z,2.50
2018-11-20T04:02:17.654Z,2.50
2018-11-20T04:05:28.015Z,2.60
2018-11-20T04:08:50.651Z,2.50
2018-11-20T04:12:03.623Z,2.50
2018-11-20T04:15:28.971Z,2.50
2018-11-20T04:18:56.470Z,2.50
2018-11-20T04:22:28.399Z,2.60
2018-11-20T04:25:52.523Z,2.60
2018-11-20T04:29:18.052Z,2.60
2018-11-20T04:32:37.723Z,2.60
2018-11-20T04:35:53.216Z,2.60
2018-11-20T04:39:07.669Z,2.60
2018-11-20T04:42:28.737Z,2.60
2018-11-20T04:45:51.399Z,2.70
2018-11-20T04:49:23.203Z,2.60
2018-11-20T04:52:54.820Z,2.70
2018-11-20T04:56:24.889Z,2.70
2018-11-20T04:59:57.348Z,2.80
2018-11-20T05:03:25.867Z,2.80
2018-11-20T05:07:06.768Z,2.80
2018-11-20T05:10:28.337Z,2.70
2018-11-20T05:13:53.728Z,2.80
2018-11-20T05:17:16.409Z,2.90
2018-11-20T05:20:51.174Z,2.90
2018-11-20T05:24:12.280Z,2.90
2018-11-20T05:27:27.152Z,2.90
2018-11-20T05:31:01.758Z,2.90
2018-11-20T05:34:30.347Z,2.90
2018-11-20T05:37:52.924Z,2.90
2018-11-20T05:41:27.654Z,3.00
2018-11-20T05:44:58.085Z,2.90
2018-11-20T05:48:33.003Z,2.90
2018-11-20T05:51:54.148Z,2.90
2018-11-20T05:55:15.461Z,3.00
2018-11-20T05:58:36.945Z,3.00
2018-11-20T06:02:05.628Z,3.00
2018-11-20T06:05:24.858Z,2.90
2018-11-20T06:08:46.208Z,2.90
2018-11-20T06:12:20.947Z,2.80
2018-11-20T06:15:42.065Z,2.90
2018-11-20T06:19:03.430Z,2.90
2018-11-20T06:22:35.099Z,2.90
2018-11-20T06:26:06.467Z,3.00
2018-11-20T06:29:35.035Z,3.00
2018-11-20T06:32:46.127Z,3.00
2018-11-20T06:36:14.515Z,3.00
2018-11-20T06:39:35.900Z,2.90
2018-11-20T06:43:07.300Z,2.90
2018-11-20T06:46:48.329Z,2.90
2018-11-20T06:50:22.911Z,2.90
2018-11-20T06:53:44.110Z,2.80
2018-11-20T06:57:05.396Z,2.80
2018-11-20T07:00:26.704Z,2.70
2018-11-20T07:03:48.021Z,2.70
2018-11-20T07:07:16.714Z,2.70
2018-11-20T07:10:37.924Z,2.60
2018-11-20T07:14:18.233Z,2.60
2018-11-20T07:17:51.871Z,2.50
2018-11-20T07:21:09.296Z,2.50
2018-11-20T07:24:30.798Z,2.50
2018-11-20T07:27:44.971Z,2.40
2018-11-20T07:31:06.313Z,2.40
2018-11-20T07:34:44.242Z,2.40
2018-11-20T07:38:12.543Z,2.40
2018-11-20T07:41:27.252Z,2.30
2018-11-20T07:44:59.348Z,2.20
2018-11-20T07:48:31.044Z,2.20
2018-11-20T07:52:02.425Z,2.20
2018-11-20T07:55:27.705Z,2.20
2018-11-20T07:58:50.287Z,2.20
2018-11-20T08:02:22.189Z,2.20
2018-11-20T08:05:47.677Z,2.20
2018-11-20T08:09:10.323Z,2.20
2018-11-20T08:12:31.451Z,2.20
2018-11-20T08:15:52.885Z,2.20
2018-11-20T08:19:14.336Z,2.20
2018-11-20T08:22:36.934Z,2.20
2018-11-20T08:25:59.682Z,2.20
2018-11-20T08:29:16.211Z,2.30
2018-11-20T08:32:37.364Z,2.20
2018-11-20T08:36:00.036Z,2.20
2018-11-20T08:39:36.763Z,2.30
2018-11-20T08:43:05.077Z,2.30
2018-11-20T08:46:26.189Z,2.30
2018-11-20T08:49:51.628Z,2.30
2018-11-20T08:53:14.317Z,2.30
2018-11-20T08:56:39.848Z,2.30
2018-11-20T09:00:05.340Z,2.30
2018-11-20T09:03:33.861Z,2.40
2018-11-20T09:07:08.491Z,2.40
2018-11-20T09:10:37.547Z,2.40
2018-11-20T09:14:05.641Z,2.50
2018-11-20T09:17:31.157Z,2.50
2018-11-20T09:20:52.279Z,2.60
2018-11-20T09:24:06.150Z,2.60
2018-11-20T09:27:37.582Z,2.60
2018-11-20T09:30:58.807Z,2.60
2018-11-20T09:34:24.387Z,2.60
2018-11-20T09:37:38.728Z,2.60
2018-11-20T09:41:05.728Z,2.60
2018-11-20T09:44:50.759Z,2.60
2018-11-20T09:48:19.550Z,2.60
2018-11-20T09:51:42.253Z,2.60
2018-11-20T09:55:14.247Z,2.70
2018-11-20T09:58:51.786Z,2.70
2018-11-20T10:02:29.303Z,2.70
2018-11-20T10:05:54.535Z,2.80
2018-11-20T10:09:16.387Z,2.80
2018-11-20T10:12:30.793Z,2.80
2018-11-20T10:15:52.232Z,2.90
2018-11-20T10:19:10.661Z,2.90
2018-11-20T10:22:48.280Z,2.90
2018-11-20T10:26:08.340Z,2.90
2018-11-20T10:29:46.388Z,2.90
2018-11-20T10:33:21.140Z,2.90
2018-11-20T10:36:42.391Z,2.90
2018-11-20T10:40:17.164Z,2.90
2018-11-20T10:43:46.033Z,3.00
2018-11-20T10:47:26.865Z,3.00
2018-11-20T10:50:48.169Z,3.00
2018-11-20T10:54:13.783Z,3.10
2018-11-20T10:57:35.194Z,3.00
2018-11-20T11:00:56.631Z,3.10
2018-11-20T11:04:19.641Z,3.10
2018-11-20T11:07:51.400Z,3.10
2018-11-20T11:11:12.623Z,3.10
2018-11-20T11:14:34.041Z,3.00
2018-11-20T11:17:56.617Z,3.00
2018-11-20T11:21:21.865Z,3.00
2018-11-20T11:24:44.493Z,3.10
2018-11-20T11:28:13.359Z,3.00
2018-11-20T11:31:34.595Z,3.00
2018-11-20T11:34:57.373Z,2.90
2018-11-20T11:38:12.793Z,2.90
2018-11-20T11:41:44.536Z,2.90
2018-11-20T11:45:15.980Z,3.00
2018-11-20T11:48:44.225Z,2.90
2018-11-20T11:52:06.904Z,2.90
2018-11-20T11:55:32.196Z,2.90
2018-11-20T11:58:59.371Z,2.90
2018-11-20T12:05:59.220Z,2.80
2018-11-20T12:09:18.334Z,2.80
2018-11-20T12:12:39.517Z,2.80
2018-11-20T12:16:05.017Z,2.80
2018-11-20T12:19:33.507Z,2.70
2018-11-20T12:22:52.497Z,2.70
2018-11-20T12:26:13.805Z,2.70
2018-11-20T12:29:37.343Z,2.70
2018-11-20T12:33:01.857Z,2.70
2018-11-20T12:36:36.372Z,2.70
2018-11-20T12:40:02.176Z,2.70
2018-11-20T12:43:23.448Z,2.60
2018-11-20T12:47:25.899Z,2.60
2018-11-20T12:50:54.179Z,2.60
2018-11-20T12:54:34.467Z,2.50
2018-11-20T12:57:54.916Z,2.50
2018-11-20T13:01:16.731Z,2.40
2018-11-20T13:04:44.809Z,2.40
2018-11-20T13:08:15.881Z,2.40
2018-11-20T13:11:42.311Z,2.40
2018-11-20T13:15:02.970Z,2.40
2018-11-20T13:18:12.667Z,2.30
2018-11-20T13:21:24.908Z,2.30
2018-11-20T13:24:49.386Z,2.30
2018-11-20T13:28:10.083Z,2.30
2018-11-20T13:31:33.689Z,2.30
2018-11-20T13:35:13.505Z,2.30
2018-11-20T13:38:52.049Z,2.30
2018-11-20T13:42:14.183Z,2.30
2018-11-20T13:45:24.323Z,2.30
2018-11-20T13:48:47.358Z,2.30
2018-11-20T13:52:05.219Z,2.30
2018-11-20T13:55:27.434Z,2.30
2018-11-20T13:58:48.587Z,2.30
2018-11-20T14:02:00.381Z,2.30
2018-11-20T14:05:28.182Z,2.30
2018-11-20T14:08:48.533Z,2.30
2018-11-20T14:12:20.441Z,2.30
2018-11-20T14:16:00.232Z,2.30
2018-11-20T14:19:31.101Z,2.40
2018-11-20T14:22:53.050Z,2.40
2018-11-20T14:26:13.650Z,2.30
2018-11-20T14:29:31.216Z,2.40
2018-11-20T14:33:05.423Z,2.30
2018-11-20T14:36:27.948Z,2.40
2018-11-20T14:39:52.660Z,2.40
2018-11-20T14:43:33.081Z,2.40
2018-11-20T14:47:10.126Z,2.30
2018-11-20T14:50:47.265Z,2.30
2018-11-20T14:54:07.979Z,2.30
2018-11-20T14:57:29.048Z,2.20
2018-11-20T15:00:58.857Z,2.20
2018-11-20T15:04:19.375Z,2.20
2018-11-20T15:07:40.223Z,2.10
2018-11-20T15:11:04.939Z,2.10
2018-11-20T15:14:27.675Z,2.00
2018-11-20T15:17:52.377Z,2.00
2018-11-20T15:21:05.120Z,2.00
2018-11-20T15:24:25.854Z,2.00
2018-11-20T15:27:46.336Z,2.00
2018-11-20T15:31:17.060Z,2.00
2018-11-20T15:34:46.885Z,2.10
2018-11-20T15:38:08.843Z,2.00
2018-11-20T15:41:27.167Z,2.10
2018-11-20T15:44:51.959Z,2.10
2018-11-20T15:48:13.979Z,2.10
2018-11-20T15:51:34.831Z,2.10
2018-11-20T15:54:56.759Z,2.10
2018-11-20T15:58:17.403Z,2.10
2018-11-20T16:01:57.298Z,2.10
2018-11-20T16:05:37.505Z,2.00
2018-11-20T16:09:08.370Z,2.10
2018-11-20T16:12:33.062Z,2.00
2018-11-20T16:15:55.544Z,2.00
2018-11-20T16:19:16.693Z,2.00
2018-11-20T16:22:44.319Z,2.00
2018-11-20T16:26:04.535Z,2.10
2018-11-20T16:29:38.760Z,2.10
2018-11-20T16:32:57.223Z,2.00
2018-11-20T16:36:19.159Z,2.10
2018-11-20T16:39:39.895Z,2.10
2018-11-20T16:42:54.021Z,2.20
2018-11-20T16:46:14.773Z,2.20
2018-11-20T16:49:36.242Z,2.20
2018-11-20T16:53:13.351Z,2.30
2018-11-20T16:56:42.000Z,2.30
2018-11-20T17:00:02.843Z,2.30
2018-11-20T17:03:24.766Z,2.30
2018-11-20T17:06:55.440Z,2.40
2018-11-20T17:10:29.010Z,2.30
2018-11-20T17:13:51.053Z,2.30
2018-11-20T17:17:16.093Z,2.30
2018-11-20T17:20:36.444Z,2.30
2018-11-20T17:24:13.267Z,2.30
2018-11-20T17:27:33.876Z,2.30
2018-11-20T17:30:54.226Z,2.40
2018-11-20T17:34:23.291Z,2.40
2018-11-20T17:37:35.286Z,2.30
2018-11-20T17:40:55.724Z,2.40
2018-11-20T17:44:16.125Z,2.40
2018-11-20T17:47:49.877Z,2.40
2018-11-20T17:51:17.886Z,2.40
2018-11-20T17:54:42.545Z,2.40
2018-11-20T17:58:13.642Z,2.40
2018-11-20T18:01:44.136Z,2.40
2018-11-20T18:04:56.201Z,2.50
2018-11-20T18:08:16.877Z,2.50
2018-11-20T18:11:37.824Z,2.50
2018-11-20T18:14:59.713Z,2.40
2018-11-20T18:18:20.226Z,2.50
2018-11-20T18:21:54.385Z,2.50
2018-11-20T18:25:15.470Z,2.50
2018-11-20T18:28:27.797Z,2.40
2018-11-20T18:31:48.317Z,2.40
2018-11-20T18:35:08.634Z,2.50
2018-11-20T18:38:28.873Z,2.50
2018-11-20T18:41:49.816Z,2.50
2018-11-20T18:45:24.065Z,2.50
2018-11-20T18:49:00.809Z,2.40
2018-11-20T18:52:21.397Z,2.50
2018-11-20T18:55:46.311Z,2.50
2018-11-20T18:59:14.025Z,2.50
2018-11-20T19:02:48.822Z,2.50
2018-11-20T19:06:13.721Z,2.50
2018-11-20T19:09:41.419Z,2.50
2018-11-20T19:13:09.661Z,2.50
2018-11-20T19:16:42.551Z,2.50
2018-11-20T19:20:19.612Z,2.50
2018-11-20T19:23:39.892Z,2.50
2018-11-20T19:27:07.334Z,2.40
2018-11-20T19:30:22.370Z,2.40
2018-11-20T19:33:53.135Z,2.50
2018-11-20T19:37:13.699Z,2.50
2018-11-20T19:40:38.110Z,2.50
2018-11-20T19:43:58.822Z,2.40
2018-11-20T19:47:19.827Z,2.50
2018-11-20T19:50:39.873Z,2.50
2018-11-20T19:54:00.297Z,2.40
2018-11-20T19:57:34.018Z,2.40
2018-11-20T20:00:55.829Z,2.40
2018-11-20T20:04:17.665Z,2.40
2018-11-20T20:07:38.217Z,2.40
2018-11-20T20:11:11.801Z,2.40
2018-11-20T20:14:24.308Z,2.50
2018-11-20T20:17:44.931Z,2.40
2018-11-20T20:21:06.827Z,2.40
2018-11-20T20:24:27.284Z,2.50
2018-11-20T20:27:48.175Z,2.40
2018-11-20T20:31:08.906Z,2.40
2018-11-20T20:34:21.409Z,2.40
2018-11-20T20:38:01.211Z,2.40
2018-11-20T20:41:26.026Z,2.40
2018-11-20T20:45:00.359Z,2.40
2018-11-20T20:48:24.718Z,2.40
2018-11-20T20:51:56.616Z,2.40
2018-11-20T20:55:36.579Z,2.40
2018-11-20T20:59:00.953Z,2.40
2018-11-20T21:02:26.374Z,2.40
2018-11-20T21:05:48.183Z,2.40
2018-11-20T21:09:10.101Z,2.40
2018-11-20T21:12:30.317Z,2.40
2018-11-20T21:16:07.744Z,2.40
2018-11-20T21:19:19.945Z,2.30
2018-11-20T21:22:40.528Z,2.30
2018-11-20T21:26:00.953Z,2.30
2018-11-20T21:29:23.670Z,2.30
2018-11-20T21:32:44.218Z,2.30
2018-11-20T21:35:59.623Z,2.40
2018-11-20T21:39:20.246Z,2.40
2018-11-20T21:42:32.349Z,2.30
2018-11-20T21:45:54.181Z,2.30
2018-11-20T21:49:14.518Z,2.30
2018-11-20T21:52:45.766Z,2.30
2018-11-20T21:56:26.361Z,2.30
2018-11-20T21:59:57.553Z,2.30
2018-11-20T22:03:20.046Z,2.30
2018-11-20T22:06:40.706Z,2.30
2018-11-20T22:09:56.586Z,2.30
2018-11-20T22:13:17.578Z,2.30
2018-11-20T22:16:38.344Z,2.30
2018-11-20T22:20:15.743Z,2.20
2018-11-20T22:23:36.570Z,2.20
2018-11-20T22:27:10.921Z,2.30
2018-11-20T22:30:32.800Z,2.30
2018-11-20T22:34:03.393Z,2.20
2018-11-20T22:37:25.274Z,2.20
2018-11-20T22:40:45.829Z,2.20
2018-11-20T22:44:06.250Z,2.20
2018-11-20T22:47:21.573Z,2.20
2018-11-20T22:50:42.404Z,2.20
2018-11-20T22:53:58.277Z,2.10
2018-11-20T22:57:08.950Z,2.20
2018-11-20T23:00:42.961Z,2.20
2018-11-20T23:04:17.289Z,2.20
2018-11-20T23:07:57.622Z,2.10
2018-11-20T23:10:59.909Z,2.00
2018-11-20T23:14:02.233Z,2.10
2018-11-20T23:17:04.879Z,2.10
2018-11-20T23:20:08.215Z,2.00
2018-11-20T23:23:10.718Z,1.90
2018-11-20T23:26:12.981Z,1.90
2018-11-20T23:29:15.297Z,1.90
2018-11-20T23:32:17.676Z,1.90
2018-11-20T23:35:19.936Z,1.90
2018-11-20T23:38:22.345Z,1.80
2018-11-20T23:41:24.699Z,1.80
2018-11-20T23:44:27.433Z,1.80
2018-11-20T23:47:29.975Z,1.80
2018-11-20T23:50:32.420Z,1.80
2018-11-20T23:53:34.694Z,1.70
2018-11-20T23:56:36.966Z,1.70
2018-11-20T23:59:39.264Z,1.70
